sensor_id;sensor_type;location;lat;lon;timestamp;P1;durP1;ratioP1;P2;durP2;ratioP2
17595;SDS011;8916;47.086;15.920;2023-04-03T00:01:40;8.07;;;4.60;;
17595;SDS011;8916;47.086;15.920;2023-04-03T00:04:11;7.07;;;4.93;;
17595;SDS011;8916;47.086;15.920;2023-04-03T00:06:40;10.40;;;5.03;;
17595;SDS011;8916;47.086;15.920;2023-04-03T00:09:09;7.10;;;4.45;;
17595;SDS011;8916;47.086;15.920;2023-04-03T00:11:38;5.32;;;4.05;;
17595;SDS011;8916;47.086;15.920;2023-04-03T00:14:07;7.72;;;4.72;;
17595;SDS011;8916;47.086;15.920;2023-04-03T00:16:37;8.75;;;4.47;;
17595;SDS011;8916;47.086;15.920;2023-04-03T00:19:07;6.25;;;4.55;;
17595;SDS011;8916;47.086;15.920;2023-04-03T00:21:40;7.05;;;4.15;;
17595;SDS011;8916;47.086;15.920;2023-04-03T00:24:09;7.18;;;4.47;;
17595;SDS011;8916;47.086;15.920;2023-04-03T00:26:38;6.28;;;4.43;;
17595;SDS011;8916;47.086;15.920;2023-04-03T00:29:07;4.93;;;3.50;;
17595;SDS011;8916;47.086;15.920;2023-04-03T00:31:36;5.85;;;4.15;;
17595;SDS011;8916;47.086;15.920;2023-04-03T00:34:05;6.20;;;4.30;;
17595;SDS011;8916;47.086;15.920;2023-04-03T00:36:35;5.93;;;3.72;;
17595;SDS011;8916;47.086;15.920;2023-04-03T00:39:05;5.00;;;3.60;;
17595;SDS011;8916;47.086;15.920;2023-04-03T00:41:34;5.10;;;3.33;;
17595;SDS011;8916;47.086;15.920;2023-04-03T00:44:18;4.68;;;3.30;;
17595;SDS011;8916;47.086;15.920;2023-04-03T00:46:49;4.65;;;3.30;;
17595;SDS011;8916;47.086;15.920;2023-04-03T00:49:18;7.18;;;3.97;;
17595;SDS011;8916;47.086;15.920;2023-04-03T00:51:48;6.07;;;3.13;;
17595;SDS011;8916;47.086;15.920;2023-04-03T00:54:19;6.93;;;3.40;;
17595;SDS011;8916;47.086;15.920;2023-04-03T00:56:48;5.35;;;3.63;;
17595;SDS011;8916;47.086;15.920;2023-04-03T00:59:22;5.05;;;3.10;;
17595;SDS011;8916;47.086;15.920;2023-04-03T01:01:55;5.57;;;3.50;;
17595;SDS011;8916;47.086;15.920;2023-04-03T01:04:27;7.22;;;3.90;;
17595;SDS011;8916;47.086;15.920;2023-04-03T01:06:57;6.57;;;3.72;;
17595;SDS011;8916;47.086;15.920;2023-04-03T01:09:32;7.18;;;3.88;;
17595;SDS011;8916;47.086;15.920;2023-04-03T01:12:14;5.65;;;3.40;;
17595;SDS011;8916;47.086;15.920;2023-04-03T01:14:48;4.28;;;3.20;;
17595;SDS011;8916;47.086;15.920;2023-04-03T01:17:30;4.38;;;3.10;;
17595;SDS011;8916;47.086;15.920;2023-04-03T01:20:14;4.97;;;3.00;;
17595;SDS011;8916;47.086;15.920;2023-04-03T01:26:14;4.57;;;3.30;;
17595;SDS011;8916;47.086;15.920;2023-04-03T01:28:43;4.88;;;2.80;;
17595;SDS011;8916;47.086;15.920;2023-04-03T01:31:15;4.70;;;3.17;;
17595;SDS011;8916;47.086;15.920;2023-04-03T01:33:52;4.43;;;2.65;;
17595;SDS011;8916;47.086;15.920;2023-04-03T01:36:22;6.15;;;3.47;;
17595;SDS011;8916;47.086;15.920;2023-04-03T01:38:55;4.90;;;3.13;;
17595;SDS011;8916;47.086;15.920;2023-04-03T01:41:28;5.75;;;3.42;;
17595;SDS011;8916;47.086;15.920;2023-04-03T01:44:06;4.63;;;3.15;;
17595;SDS011;8916;47.086;15.920;2023-04-03T01:46:36;6.25;;;3.45;;
17595;SDS011;8916;47.086;15.920;2023-04-03T01:49:07;4.03;;;2.90;;
17595;SDS011;8916;47.086;15.920;2023-04-03T01:51:36;5.28;;;3.13;;
17595;SDS011;8916;47.086;15.920;2023-04-03T01:54:07;5.47;;;3.13;;
17595;SDS011;8916;47.086;15.920;2023-04-03T01:56:36;5.55;;;3.25;;
17595;SDS011;8916;47.086;15.920;2023-04-03T01:59:07;5.00;;;3.15;;
17595;SDS011;8916;47.086;15.920;2023-04-03T02:01:36;3.63;;;2.78;;
17595;SDS011;8916;47.086;15.920;2023-04-03T02:04:07;4.75;;;2.85;;
17595;SDS011;8916;47.086;15.920;2023-04-03T02:06:36;4.80;;;2.70;;
17595;SDS011;8916;47.086;15.920;2023-04-03T02:09:05;3.72;;;2.63;;
17595;SDS011;8916;47.086;15.920;2023-04-03T02:11:35;3.65;;;2.70;;
17595;SDS011;8916;47.086;15.920;2023-04-03T02:14:04;4.45;;;3.10;;
17595;SDS011;8916;47.086;15.920;2023-04-03T02:16:33;4.40;;;2.80;;
17595;SDS011;8916;47.086;15.920;2023-04-03T02:19:03;3.83;;;2.70;;
17595;SDS011;8916;47.086;15.920;2023-04-03T02:21:33;4.25;;;2.78;;
17595;SDS011;8916;47.086;15.920;2023-04-03T02:24:02;3.85;;;2.50;;
17595;SDS011;8916;47.086;15.920;2023-04-03T02:26:32;5.80;;;3.05;;
17595;SDS011;8916;47.086;15.920;2023-04-03T02:29:02;6.90;;;2.40;;
17595;SDS011;8916;47.086;15.920;2023-04-03T02:31:31;5.22;;;2.70;;
17595;SDS011;8916;47.086;15.920;2023-04-03T02:34:02;4.18;;;2.20;;
17595;SDS011;8916;47.086;15.920;2023-04-03T02:36:31;3.80;;;2.22;;
17595;SDS011;8916;47.086;15.920;2023-04-03T02:39:05;2.85;;;2.10;;
17595;SDS011;8916;47.086;15.920;2023-04-03T02:41:35;3.53;;;2.53;;
17595;SDS011;8916;47.086;15.920;2023-04-03T02:44:10;4.43;;;2.67;;
17595;SDS011;8916;47.086;15.920;2023-04-03T02:46:40;3.42;;;2.30;;
17595;SDS011;8916;47.086;15.920;2023-04-03T02:49:09;3.70;;;2.50;;
17595;SDS011;8916;47.086;15.920;2023-04-03T02:51:38;5.03;;;2.60;;
17595;SDS011;8916;47.086;15.920;2023-04-03T02:54:08;4.47;;;2.80;;
17595;SDS011;8916;47.086;15.920;2023-04-03T02:56:41;5.32;;;2.78;;
17595;SDS011;8916;47.086;15.920;2023-04-03T02:59:10;4.22;;;2.53;;
17595;SDS011;8916;47.086;15.920;2023-04-03T03:01:40;4.45;;;2.65;;
17595;SDS011;8916;47.086;15.920;2023-04-03T03:04:09;5.68;;;2.50;;
17595;SDS011;8916;47.086;15.920;2023-04-03T03:06:38;3.97;;;2.38;;
17595;SDS011;8916;47.086;15.920;2023-04-03T03:09:12;3.22;;;2.30;;
17595;SDS011;8916;47.086;15.920;2023-04-03T03:11:42;3.08;;;2.30;;
17595;SDS011;8916;47.086;15.920;2023-04-03T03:14:11;2.92;;;2.10;;
17595;SDS011;8916;47.086;15.920;2023-04-03T03:16:40;4.28;;;2.80;;
17595;SDS011;8916;47.086;15.920;2023-04-03T03:19:09;4.32;;;2.95;;
17595;SDS011;8916;47.086;15.920;2023-04-03T03:21:39;3.35;;;2.25;;
17595;SDS011;8916;47.086;15.920;2023-04-03T03:24:08;4.68;;;2.70;;
17595;SDS011;8916;47.086;15.920;2023-04-03T03:26:40;4.32;;;2.45;;
17595;SDS011;8916;47.086;15.920;2023-04-03T03:29:09;3.60;;;2.30;;
17595;SDS011;8916;47.086;15.920;2023-04-03T03:31:38;3.30;;;2.40;;
17595;SDS011;8916;47.086;15.920;2023-04-03T03:34:07;3.88;;;2.30;;
17595;SDS011;8916;47.086;15.920;2023-04-03T03:36:38;4.00;;;2.38;;
17595;SDS011;8916;47.086;15.920;2023-04-03T03:39:08;3.03;;;2.30;;
17595;SDS011;8916;47.086;15.920;2023-04-03T03:41:37;3.78;;;2.65;;
17595;SDS011;8916;47.086;15.920;2023-04-03T03:44:08;5.25;;;3.03;;
17595;SDS011;8916;47.086;15.920;2023-04-03T03:46:38;4.03;;;2.78;;
17595;SDS011;8916;47.086;15.920;2023-04-03T03:49:07;5.32;;;3.03;;
17595;SDS011;8916;47.086;15.920;2023-04-03T03:51:37;5.57;;;2.53;;
17595;SDS011;8916;47.086;15.920;2023-04-03T03:54:07;6.72;;;2.38;;
17595;SDS011;8916;47.086;15.920;2023-04-03T03:56:36;4.28;;;2.58;;
17595;SDS011;8916;47.086;15.920;2023-04-03T03:59:05;3.95;;;2.50;;
17595;SDS011;8916;47.086;15.920;2023-04-03T04:01:36;4.22;;;2.50;;
17595;SDS011;8916;47.086;15.920;2023-04-03T04:04:05;4.40;;;2.55;;
17595;SDS011;8916;47.086;15.920;2023-04-03T04:06:34;5.15;;;3.10;;
17595;SDS011;8916;47.086;15.920;2023-04-03T04:09:08;5.72;;;3.05;;
17595;SDS011;8916;47.086;15.920;2023-04-03T04:11:37;5.03;;;2.70;;
17595;SDS011;8916;47.086;15.920;2023-04-03T04:14:10;4.13;;;2.45;;
17595;SDS011;8916;47.086;15.920;2023-04-03T04:16:43;3.25;;;2.28;;
17595;SDS011;8916;47.086;15.920;2023-04-03T04:19:18;3.95;;;2.63;;
17595;SDS011;8916;47.086;15.920;2023-04-03T04:21:47;3.67;;;2.50;;
17595;SDS011;8916;47.086;15.920;2023-04-03T04:24:16;4.15;;;3.00;;
17595;SDS011;8916;47.086;15.920;2023-04-03T04:26:46;4.22;;;3.10;;
17595;SDS011;8916;47.086;15.920;2023-04-03T04:29:17;6.07;;;2.60;;
17595;SDS011;8916;47.086;15.920;2023-04-03T04:31:50;3.15;;;2.35;;
17595;SDS011;8916;47.086;15.920;2023-04-03T04:34:21;3.25;;;2.63;;
17595;SDS011;8916;47.086;15.920;2023-04-03T04:36:50;5.13;;;3.30;;
17595;SDS011;8916;47.086;15.920;2023-04-03T04:39:19;8.13;;;3.25;;
17595;SDS011;8916;47.086;15.920;2023-04-03T04:41:49;3.28;;;2.40;;
17595;SDS011;8916;47.086;15.920;2023-04-03T04:44:18;5.32;;;2.25;;
17595;SDS011;8916;47.086;15.920;2023-04-03T04:46:48;6.43;;;2.85;;
17595;SDS011;8916;47.086;15.920;2023-04-03T04:49:20;3.70;;;2.35;;
17595;SDS011;8916;47.086;15.920;2023-04-03T04:51:49;3.08;;;2.10;;
17595;SDS011;8916;47.086;15.920;2023-04-03T04:54:24;3.03;;;2.20;;
17595;SDS011;8916;47.086;15.920;2023-04-03T04:56:53;4.57;;;2.30;;
17595;SDS011;8916;47.086;15.920;2023-04-03T04:59:23;3.55;;;2.10;;
17595;SDS011;8916;47.086;15.920;2023-04-03T05:01:56;3.40;;;2.17;;
17595;SDS011;8916;47.086;15.920;2023-04-03T05:04:26;3.20;;;2.25;;
17595;SDS011;8916;47.086;15.920;2023-04-03T05:07:04;3.40;;;2.47;;
17595;SDS011;8916;47.086;15.920;2023-04-03T05:09:35;2.97;;;2.28;;
17595;SDS011;8916;47.086;15.920;2023-04-03T05:12:05;3.47;;;2.30;;
17595;SDS011;8916;47.086;15.920;2023-04-03T05:14:43;4.65;;;2.63;;
17595;SDS011;8916;47.086;15.920;2023-04-03T05:17:14;5.38;;;2.50;;
17595;SDS011;8916;47.086;15.920;2023-04-03T05:19:48;4.03;;;2.50;;
17595;SDS011;8916;47.086;15.920;2023-04-03T05:22:20;4.82;;;2.75;;
17595;SDS011;8916;47.086;15.920;2023-04-03T05:24:52;5.70;;;2.10;;
17595;SDS011;8916;47.086;15.920;2023-04-03T05:27:23;4.45;;;2.38;;
17595;SDS011;8916;47.086;15.920;2023-04-03T05:29:54;6.90;;;3.10;;
17595;SDS011;8916;47.086;15.920;2023-04-03T05:32:26;5.30;;;2.63;;
17595;SDS011;8916;47.086;15.920;2023-04-03T05:35:08;3.85;;;2.28;;
17595;SDS011;8916;47.086;15.920;2023-04-03T05:37:39;3.72;;;2.60;;
17595;SDS011;8916;47.086;15.920;2023-04-03T05:40:10;3.72;;;2.40;;
17595;SDS011;8916;47.086;15.920;2023-04-03T05:42:42;2.63;;;2.13;;
17595;SDS011;8916;47.086;15.920;2023-04-03T05:45:13;4.60;;;2.38;;
17595;SDS011;8916;47.086;15.920;2023-04-03T05:47:44;3.70;;;2.60;;
17595;SDS011;8916;47.086;15.920;2023-04-03T05:50:13;4.55;;;2.47;;
17595;SDS011;8916;47.086;15.920;2023-04-03T05:52:43;4.28;;;2.60;;
17595;SDS011;8916;47.086;15.920;2023-04-03T05:55:15;4.68;;;2.53;;
17595;SDS011;8916;47.086;15.920;2023-04-03T05:57:44;6.07;;;2.78;;
17595;SDS011;8916;47.086;15.920;2023-04-03T06:00:14;3.50;;;2.22;;
17595;SDS011;8916;47.086;15.920;2023-04-03T06:02:55;4.05;;;2.45;;
17595;SDS011;8916;47.086;15.920;2023-04-03T06:05:25;3.42;;;2.50;;
17595;SDS011;8916;47.086;15.920;2023-04-03T06:07:55;3.90;;;2.17;;
17595;SDS011;8916;47.086;15.920;2023-04-03T06:10:24;3.60;;;2.53;;
17595;SDS011;8916;47.086;15.920;2023-04-03T06:12:53;3.53;;;2.33;;
17595;SDS011;8916;47.086;15.920;2023-04-03T06:15:23;5.03;;;2.58;;
17595;SDS011;8916;47.086;15.920;2023-04-03T06:17:52;4.30;;;2.55;;
17595;SDS011;8916;47.086;15.920;2023-04-03T06:20:23;3.38;;;2.50;;
17595;SDS011;8916;47.086;15.920;2023-04-03T06:22:53;5.65;;;2.75;;
17595;SDS011;8916;47.086;15.920;2023-04-03T06:25:22;4.72;;;2.60;;
17595;SDS011;8916;47.086;15.920;2023-04-03T06:27:51;5.07;;;2.70;;
17595;SDS011;8916;47.086;15.920;2023-04-03T06:30:22;3.15;;;2.40;;
17595;SDS011;8916;47.086;15.920;2023-04-03T06:32:51;3.67;;;2.22;;
17595;SDS011;8916;47.086;15.920;2023-04-03T06:35:20;3.53;;;2.38;;
17595;SDS011;8916;47.086;15.920;2023-04-03T06:37:52;4.07;;;2.75;;
17595;SDS011;8916;47.086;15.920;2023-04-03T06:40:22;5.18;;;2.67;;
17595;SDS011;8916;47.086;15.920;2023-04-03T06:42:53;5.43;;;2.88;;
17595;SDS011;8916;47.086;15.920;2023-04-03T06:45:22;4.00;;;2.72;;
17595;SDS011;8916;47.086;15.920;2023-04-03T06:47:52;8.15;;;3.83;;
17595;SDS011;8916;47.086;15.920;2023-04-03T06:50:24;4.05;;;2.92;;
17595;SDS011;8916;47.086;15.920;2023-04-03T06:52:53;5.72;;;3.25;;
17595;SDS011;8916;47.086;15.920;2023-04-03T06:55:22;5.20;;;3.15;;
17595;SDS011;8916;47.086;15.920;2023-04-03T06:57:51;7.40;;;2.90;;
17595;SDS011;8916;47.086;15.920;2023-04-03T07:00:20;5.20;;;2.90;;
17595;SDS011;8916;47.086;15.920;2023-04-03T07:02:49;6.60;;;3.03;;
17595;SDS011;8916;47.086;15.920;2023-04-03T07:05:19;6.60;;;2.80;;
17595;SDS011;8916;47.086;15.920;2023-04-03T07:07:49;4.35;;;2.70;;
17595;SDS011;8916;47.086;15.920;2023-04-03T07:10:19;5.60;;;2.92;;
17595;SDS011;8916;47.086;15.920;2023-04-03T07:12:48;5.20;;;3.00;;
17595;SDS011;8916;47.086;15.920;2023-04-03T07:15:17;6.50;;;2.90;;
17595;SDS011;8916;47.086;15.920;2023-04-03T07:17:46;3.83;;;2.45;;
17595;SDS011;8916;47.086;15.920;2023-04-03T07:20:15;5.75;;;3.08;;
17595;SDS011;8916;47.086;15.920;2023-04-03T07:22:45;4.63;;;2.92;;
17595;SDS011;8916;47.086;15.920;2023-04-03T07:25:15;4.20;;;2.38;;
17595;SDS011;8916;47.086;15.920;2023-04-03T07:27:44;3.90;;;2.22;;
17595;SDS011;8916;47.086;15.920;2023-04-03T07:30:14;3.42;;;2.33;;
17595;SDS011;8916;47.086;15.920;2023-04-03T07:32:43;3.92;;;2.40;;
17595;SDS011;8916;47.086;15.920;2023-04-03T07:35:13;5.05;;;2.30;;
17595;SDS011;8916;47.086;15.920;2023-04-03T07:37:43;4.00;;;2.22;;
17595;SDS011;8916;47.086;15.920;2023-04-03T07:40:13;2.90;;;2.28;;
17595;SDS011;8916;47.086;15.920;2023-04-03T07:42:44;3.35;;;2.38;;
17595;SDS011;8916;47.086;15.920;2023-04-03T07:45:13;3.95;;;2.20;;
17595;SDS011;8916;47.086;15.920;2023-04-03T07:47:44;4.25;;;2.42;;
17595;SDS011;8916;47.086;15.920;2023-04-03T07:50:13;3.33;;;2.05;;
17595;SDS011;8916;47.086;15.920;2023-04-03T07:52:43;5.10;;;2.65;;
17595;SDS011;8916;47.086;15.920;2023-04-03T07:55:12;4.50;;;2.40;;
17595;SDS011;8916;47.086;15.920;2023-04-03T07:57:41;3.67;;;2.30;;
17595;SDS011;8916;47.086;15.920;2023-04-03T08:00:12;3.10;;;2.30;;
17595;SDS011;8916;47.086;15.920;2023-04-03T08:02:44;7.05;;;2.80;;
17595;SDS011;8916;47.086;15.920;2023-04-03T08:05:17;4.55;;;2.40;;
17595;SDS011;8916;47.086;15.920;2023-04-03T08:07:47;4.07;;;2.40;;
17595;SDS011;8916;47.086;15.920;2023-04-03T08:10:16;3.25;;;2.10;;
17595;SDS011;8916;47.086;15.920;2023-04-03T08:12:47;3.58;;;2.20;;
17595;SDS011;8916;47.086;15.920;2023-04-03T08:15:16;3.53;;;2.40;;
17595;SDS011;8916;47.086;15.920;2023-04-03T08:17:46;4.03;;;2.53;;
17595;SDS011;8916;47.086;15.920;2023-04-03T08:20:15;3.35;;;2.30;;
17595;SDS011;8916;47.086;15.920;2023-04-03T08:22:44;3.47;;;1.90;;
17595;SDS011;8916;47.086;15.920;2023-04-03T08:25:13;2.42;;;1.90;;
17595;SDS011;8916;47.086;15.920;2023-04-03T08:27:44;7.45;;;2.13;;
17595;SDS011;8916;47.086;15.920;2023-04-03T08:30:15;4.20;;;2.22;;
17595;SDS011;8916;47.086;15.920;2023-04-03T08:32:44;2.60;;;2.10;;
17595;SDS011;8916;47.086;15.920;2023-04-03T08:35:13;3.67;;;2.38;;
17595;SDS011;8916;47.086;15.920;2023-04-03T08:37:42;4.72;;;2.78;;
17595;SDS011;8916;47.086;15.920;2023-04-03T08:40:13;5.30;;;2.83;;
17595;SDS011;8916;47.086;15.920;2023-04-03T08:42:48;7.85;;;3.33;;
17595;SDS011;8916;47.086;15.920;2023-04-03T08:45:35;4.60;;;2.17;;
17595;SDS011;8916;47.086;15.920;2023-04-03T08:48:13;5.00;;;3.30;;
17595;SDS011;8916;47.086;15.920;2023-04-03T08:50:49;5.00;;;2.53;;
17595;SDS011;8916;47.086;15.920;2023-04-03T08:53:21;5.53;;;2.88;;
17595;SDS011;8916;47.086;15.920;2023-04-03T08:55:55;4.82;;;2.78;;
17595;SDS011;8916;47.086;15.920;2023-04-03T08:58:28;6.63;;;3.42;;
17595;SDS011;8916;47.086;15.920;2023-04-03T09:01:02;4.38;;;2.30;;
17595;SDS011;8916;47.086;15.920;2023-04-03T09:03:34;2.97;;;1.98;;
17595;SDS011;8916;47.086;15.920;2023-04-03T09:06:10;4.70;;;2.70;;
17595;SDS011;8916;47.086;15.920;2023-04-03T09:08:44;6.03;;;2.45;;
17595;SDS011;8916;47.086;15.920;2023-04-03T09:11:20;4.65;;;2.58;;
17595;SDS011;8916;47.086;15.920;2023-04-03T09:13:57;4.95;;;2.40;;
17595;SDS011;8916;47.086;15.920;2023-04-03T09:16:33;4.50;;;2.92;;
17595;SDS011;8916;47.086;15.920;2023-04-03T09:19:14;6.95;;;2.72;;
17595;SDS011;8916;47.086;15.920;2023-04-03T09:21:50;4.80;;;2.72;;
17595;SDS011;8916;47.086;15.920;2023-04-03T09:24:19;6.10;;;2.70;;
17595;SDS011;8916;47.086;15.920;2023-04-03T09:26:53;6.15;;;3.08;;
17595;SDS011;8916;47.086;15.920;2023-04-03T09:29:29;7.30;;;3.20;;
17595;SDS011;8916;47.086;15.920;2023-04-03T09:31:59;7.15;;;3.10;;
17595;SDS011;8916;47.086;15.920;2023-04-03T09:34:31;4.30;;;2.53;;
17595;SDS011;8916;47.086;15.920;2023-04-03T09:37:04;4.05;;;2.80;;
17595;SDS011;8916;47.086;15.920;2023-04-03T09:39:48;5.00;;;2.60;;
17595;SDS011;8916;47.086;15.920;2023-04-03T09:42:21;3.95;;;2.40;;
17595;SDS011;8916;47.086;15.920;2023-04-03T09:44:54;4.35;;;3.00;;
17595;SDS011;8916;47.086;15.920;2023-04-03T09:47:26;3.05;;;1.80;;
17595;SDS011;8916;47.086;15.920;2023-04-03T09:50:08;4.15;;;2.15;;
17595;SDS011;8916;47.086;15.920;2023-04-03T09:52:49;2.75;;;1.85;;
17595;SDS011;8916;47.086;15.920;2023-04-03T09:55:20;4.38;;;2.20;;
17595;SDS011;8916;47.086;15.920;2023-04-03T09:57:54;3.05;;;2.10;;
17595;SDS011;8916;47.086;15.920;2023-04-03T10:00:27;4.15;;;2.10;;
17595;SDS011;8916;47.086;15.920;2023-04-03T10:03:01;4.75;;;2.30;;
17595;SDS011;8916;47.086;15.920;2023-04-03T10:05:33;3.45;;;2.28;;
17595;SDS011;8916;47.086;15.920;2023-04-03T10:08:08;4.78;;;2.40;;
17595;SDS011;8916;47.086;15.920;2023-04-03T10:10:48;3.90;;;2.13;;
17595;SDS011;8916;47.086;15.920;2023-04-03T10:13:49;5.10;;;2.30;;
17595;SDS011;8916;47.086;15.920;2023-04-03T10:16:22;5.35;;;2.05;;
17595;SDS011;8916;47.086;15.920;2023-04-03T10:19:11;5.25;;;2.58;;
17595;SDS011;8916;47.086;15.920;2023-04-03T10:21:58;6.28;;;2.40;;
17595;SDS011;8916;47.086;15.920;2023-04-03T10:24:34;3.42;;;2.30;;
17595;SDS011;8916;47.086;15.920;2023-04-03T10:27:13;5.28;;;2.15;;
17595;SDS011;8916;47.086;15.920;2023-04-03T10:29:51;8.43;;;2.88;;
17595;SDS011;8916;47.086;15.920;2023-04-03T10:32:39;3.10;;;2.20;;
17595;SDS011;8916;47.086;15.920;2023-04-03T10:35:25;4.80;;;2.83;;
17595;SDS011;8916;47.086;15.920;2023-04-03T10:38:10;3.35;;;2.10;;
17595;SDS011;8916;47.086;15.920;2023-04-03T10:40:49;4.70;;;2.25;;
17595;SDS011;8916;47.086;15.920;2023-04-03T10:43:28;4.15;;;2.00;;
17595;SDS011;8916;47.086;15.920;2023-04-03T10:46:05;3.88;;;2.17;;
17595;SDS011;8916;47.086;15.920;2023-04-03T10:48:48;3.17;;;2.00;;
17595;SDS011;8916;47.086;15.920;2023-04-03T10:51:29;5.43;;;2.47;;
17595;SDS011;8916;47.086;15.920;2023-04-03T10:54:08;3.15;;;1.90;;
17595;SDS011;8916;47.086;15.920;2023-04-03T10:56:41;5.18;;;2.10;;
17595;SDS011;8916;47.086;15.920;2023-04-03T10:59:28;3.80;;;2.30;;
17595;SDS011;8916;47.086;15.920;2023-04-03T11:02:03;11.93;;;5.63;;
17595;SDS011;8916;47.086;15.920;2023-04-03T11:04:44;5.25;;;2.95;;
17595;SDS011;8916;47.086;15.920;2023-04-03T11:07:18;4.03;;;2.38;;
17595;SDS011;8916;47.086;15.920;2023-04-03T11:09:52;5.78;;;2.60;;
17595;SDS011;8916;47.086;15.920;2023-04-03T11:12:32;4.65;;;2.20;;
17595;SDS011;8916;47.086;15.920;2023-04-03T11:15:11;4.13;;;2.20;;
17595;SDS011;8916;47.086;15.920;2023-04-03T11:17:45;4.38;;;2.10;;
17595;SDS011;8916;47.086;15.920;2023-04-03T11:20:23;9.80;;;2.60;;
17595;SDS011;8916;47.086;15.920;2023-04-03T11:23:00;3.35;;;2.20;;
17595;SDS011;8916;47.086;15.920;2023-04-03T11:25:34;3.05;;;2.08;;
17595;SDS011;8916;47.086;15.920;2023-04-03T11:28:11;5.10;;;2.10;;
17595;SDS011;8916;47.086;15.920;2023-04-03T11:30:43;3.78;;;2.42;;
17595;SDS011;8916;47.086;15.920;2023-04-03T11:33:28;3.20;;;2.00;;
17595;SDS011;8916;47.086;15.920;2023-04-03T11:36:07;3.90;;;2.22;;
17595;SDS011;8916;47.086;15.920;2023-04-03T11:38:56;4.07;;;2.30;;
17595;SDS011;8916;47.086;15.920;2023-04-03T11:41:30;2.97;;;2.03;;
17595;SDS011;8916;47.086;15.920;2023-04-03T11:44:00;3.33;;;2.10;;
17595;SDS011;8916;47.086;15.920;2023-04-03T11:46:49;4.18;;;2.40;;
17595;SDS011;8916;47.086;15.920;2023-04-03T11:55:45;4.20;;;2.10;;
17595;SDS011;8916;47.086;15.920;2023-04-03T11:58:30;4.63;;;2.30;;
17595;SDS011;8916;47.086;15.920;2023-04-03T12:01:05;3.17;;;2.03;;
17595;SDS011;8916;47.086;15.920;2023-04-03T12:12:58;3.45;;;1.77;;
17595;SDS011;8916;47.086;15.920;2023-04-03T12:24:47;11.60;;;2.60;;
17595;SDS011;8916;47.086;15.920;2023-04-03T12:27:25;3.85;;;2.13;;
17595;SDS011;8916;47.086;15.920;2023-04-03T12:30:07;3.70;;;2.10;;
17595;SDS011;8916;47.086;15.920;2023-04-03T12:32:49;4.60;;;2.92;;
17595;SDS011;8916;47.086;15.920;2023-04-03T12:35:39;4.05;;;2.40;;
17595;SDS011;8916;47.086;15.920;2023-04-03T12:38:21;4.45;;;2.05;;
17595;SDS011;8916;47.086;15.920;2023-04-03T12:41:16;3.97;;;2.15;;
17595;SDS011;8916;47.086;15.920;2023-04-03T12:43:58;6.78;;;2.58;;
17595;SDS011;8916;47.086;15.920;2023-04-03T12:46:51;6.88;;;2.30;;
17595;SDS011;8916;47.086;15.920;2023-04-03T12:49:30;3.92;;;2.30;;
17595;SDS011;8916;47.086;15.920;2023-04-03T12:52:05;5.68;;;2.92;;
17595;SDS011;8916;47.086;15.920;2023-04-03T12:54:49;4.70;;;2.53;;
17595;SDS011;8916;47.086;15.920;2023-04-03T12:57:20;4.88;;;2.75;;
17595;SDS011;8916;47.086;15.920;2023-04-03T12:59:55;8.32;;;3.00;;
17595;SDS011;8916;47.086;15.920;2023-04-03T13:02:25;3.53;;;2.35;;
17595;SDS011;8916;47.086;15.920;2023-04-03T13:04:57;6.35;;;2.25;;
17595;SDS011;8916;47.086;15.920;2023-04-03T13:07:33;6.45;;;2.92;;
17595;SDS011;8916;47.086;15.920;2023-04-03T13:10:13;7.57;;;2.63;;
17595;SDS011;8916;47.086;15.920;2023-04-03T13:12:46;6.93;;;3.13;;
17595;SDS011;8916;47.086;15.920;2023-04-03T13:15:24;5.55;;;3.30;;
17595;SDS011;8916;47.086;15.920;2023-04-03T13:17:56;4.88;;;2.30;;
17595;SDS011;8916;47.086;15.920;2023-04-03T13:20:27;4.78;;;2.75;;
17595;SDS011;8916;47.086;15.920;2023-04-03T13:22:58;4.80;;;2.13;;
17595;SDS011;8916;47.086;15.920;2023-04-03T13:25:32;7.88;;;2.88;;
17595;SDS011;8916;47.086;15.920;2023-04-03T13:28:04;4.65;;;2.63;;
17595;SDS011;8916;47.086;15.920;2023-04-03T13:30:53;5.22;;;3.08;;
17595;SDS011;8916;47.086;15.920;2023-04-03T13:33:30;6.13;;;2.55;;
17595;SDS011;8916;47.086;15.920;2023-04-03T13:36:05;7.82;;;4.13;;
17595;SDS011;8916;47.086;15.920;2023-04-03T13:38:44;3.95;;;2.70;;
17595;SDS011;8916;47.086;15.920;2023-04-03T13:41:23;5.63;;;2.85;;
17595;SDS011;8916;47.086;15.920;2023-04-03T13:43:57;6.15;;;2.95;;
17595;SDS011;8916;47.086;15.920;2023-04-03T13:46:46;6.10;;;3.88;;
17595;SDS011;8916;47.086;15.920;2023-04-03T13:49:17;5.60;;;2.65;;
17595;SDS011;8916;47.086;15.920;2023-04-03T13:51:49;5.85;;;2.28;;
17595;SDS011;8916;47.086;15.920;2023-04-03T13:54:33;4.00;;;2.30;;
17595;SDS011;8916;47.086;15.920;2023-04-03T13:57:11;3.60;;;2.28;;
17595;SDS011;8916;47.086;15.920;2023-04-03T14:02:15;7.45;;;3.40;;
17595;SDS011;8916;47.086;15.920;2023-04-03T14:04:51;5.37;;;2.83;;
17595;SDS011;8916;47.086;15.920;2023-04-03T14:07:25;4.90;;;2.70;;
17595;SDS011;8916;47.086;15.920;2023-04-03T14:09:55;4.53;;;2.78;;
17595;SDS011;8916;47.086;15.920;2023-04-03T14:12:26;3.70;;;2.40;;
17595;SDS011;8916;47.086;15.920;2023-04-03T14:15:00;5.35;;;2.40;;
17595;SDS011;8916;47.086;15.920;2023-04-03T14:17:33;4.93;;;2.33;;
17595;SDS011;8916;47.086;15.920;2023-04-03T14:20:03;4.47;;;2.30;;
17595;SDS011;8916;47.086;15.920;2023-04-03T14:22:34;7.30;;;2.55;;
17595;SDS011;8916;47.086;15.920;2023-04-03T14:25:03;5.20;;;2.40;;
17595;SDS011;8916;47.086;15.920;2023-04-03T14:27:34;4.20;;;2.38;;
17595;SDS011;8916;47.086;15.920;2023-04-03T14:30:07;4.85;;;2.60;;
17595;SDS011;8916;47.086;15.920;2023-04-03T14:32:44;6.60;;;3.50;;
17595;SDS011;8916;47.086;15.920;2023-04-03T14:35:14;4.20;;;2.97;;
17595;SDS011;8916;47.086;15.920;2023-04-03T14:37:46;7.63;;;2.60;;
17595;SDS011;8916;47.086;15.920;2023-04-03T14:40:17;5.88;;;2.60;;
17595;SDS011;8916;47.086;15.920;2023-04-03T14:42:49;5.78;;;2.90;;
17595;SDS011;8916;47.086;15.920;2023-04-03T14:45:18;7.32;;;2.85;;
17595;SDS011;8916;47.086;15.920;2023-04-03T14:47:49;5.63;;;2.35;;
17595;SDS011;8916;47.086;15.920;2023-04-03T14:50:22;4.68;;;2.40;;
17595;SDS011;8916;47.086;15.920;2023-04-03T14:52:55;6.45;;;3.17;;
17595;SDS011;8916;47.086;15.920;2023-04-03T14:55:26;3.58;;;2.45;;
17595;SDS011;8916;47.086;15.920;2023-04-03T14:57:56;5.47;;;2.60;;
17595;SDS011;8916;47.086;15.920;2023-04-03T15:00:25;4.00;;;2.30;;
17595;SDS011;8916;47.086;15.920;2023-04-03T15:02:55;4.95;;;2.58;;
17595;SDS011;8916;47.086;15.920;2023-04-03T15:05:25;4.60;;;2.70;;
17595;SDS011;8916;47.086;15.920;2023-04-03T15:07:54;3.88;;;2.72;;
17595;SDS011;8916;47.086;15.920;2023-04-03T15:10:28;6.40;;;2.53;;
17595;SDS011;8916;47.086;15.920;2023-04-03T15:12:58;4.45;;;2.60;;
17595;SDS011;8916;47.086;15.920;2023-04-03T15:15:28;5.88;;;3.08;;
17595;SDS011;8916;47.086;15.920;2023-04-03T15:17:59;8.00;;;3.40;;
17595;SDS011;8916;47.086;15.920;2023-04-03T15:20:29;8.57;;;3.85;;
17595;SDS011;8916;47.086;15.920;2023-04-03T15:23:00;6.03;;;3.60;;
17595;SDS011;8916;47.086;15.920;2023-04-03T15:25:29;6.03;;;2.63;;
17595;SDS011;8916;47.086;15.920;2023-04-03T15:27:59;4.03;;;2.38;;
17595;SDS011;8916;47.086;15.920;2023-04-03T15:30:28;4.13;;;2.60;;
17595;SDS011;8916;47.086;15.920;2023-04-03T15:32:59;5.30;;;2.70;;
17595;SDS011;8916;47.086;15.920;2023-04-03T15:35:28;5.53;;;2.75;;
17595;SDS011;8916;47.086;15.920;2023-04-03T15:37:58;7.03;;;2.90;;
17595;SDS011;8916;47.086;15.920;2023-04-03T15:40:27;8.35;;;2.25;;
17595;SDS011;8916;47.086;15.920;2023-04-03T15:42:56;8.30;;;3.03;;
17595;SDS011;8916;47.086;15.920;2023-04-03T15:45:26;7.32;;;2.95;;
17595;SDS011;8916;47.086;15.920;2023-04-03T15:47:59;5.13;;;2.67;;
17595;SDS011;8916;47.086;15.920;2023-04-03T15:50:29;6.80;;;3.00;;
17595;SDS011;8916;47.086;15.920;2023-04-03T15:52:59;3.75;;;2.42;;